Kapaau, Hawaii
Current Conditions -  °F | °C
As of 10:56 AM on Sunday 23 Nov 2014 (Local Time) from PHSF Reporting Station
Clear Clear  
Wind Chill: 67°   Ceiling: Unl
Heat Index: 67°   Visibility: 10mi
Dew Point: 41°   Wind: 5mph
Humidity: 39%   Direction: 130°SE
Pressure: 30.32"   Gusts: NA
Location:  20.22°N, 155.79°W
Report Text: PHSF 232056Z AUTO 13004KT 10SM CLR 20/05 A3032 RMK AO2 SLP154 T01970052 50000 $
Loading
Personal Weather Stations






























Interactive Weather Map New forecast layout! Learn more

10-Day Weather Forecast

Advertisements
Track Severe Weather on mobile